sensor_id;sensor_type;location;lat;lon;timestamp;P1;durP1;ratioP1;P2;durP2;ratioP2
78844;SDS011;68195;50.854;2.860;2023-09-07T00:00:53;12.73;;;9.77;;
78844;SDS011;68195;50.854;2.860;2023-09-07T00:03:23;10.70;;;8.63;;
78844;SDS011;68195;50.854;2.860;2023-09-07T00:05:50;10.77;;;9.55;;
78844;SDS011;68195;50.854;2.860;2023-09-07T00:08:16;12.27;;;10.38;;
78844;SDS011;68195;50.854;2.860;2023-09-07T00:10:41;11.57;;;9.82;;
78844;SDS011;68195;50.854;2.860;2023-09-07T00:13:07;13.48;;;10.63;;
78844;SDS011;68195;50.854;2.860;2023-09-07T00:15:36;11.18;;;9.38;;
78844;SDS011;68195;50.854;2.860;2023-09-07T00:18:02;13.38;;;8.80;;
78844;SDS011;68195;50.854;2.860;2023-09-07T00:20:28;12.25;;;8.88;;
78844;SDS011;68195;50.854;2.860;2023-09-07T00:22:56;10.45;;;9.35;;
78844;SDS011;68195;50.854;2.860;2023-09-07T00:25:22;13.00;;;9.90;;
78844;SDS011;68195;50.854;2.860;2023-09-07T00:27:47;12.43;;;9.68;;
78844;SDS011;68195;50.854;2.860;2023-09-07T00:30:13;12.02;;;10.55;;
78844;SDS011;68195;50.854;2.860;2023-09-07T00:32:39;9.88;;;8.82;;
78844;SDS011;68195;50.854;2.860;2023-09-07T00:35:05;11.63;;;10.07;;
78844;SDS011;68195;50.854;2.860;2023-09-07T00:37:32;12.90;;;10.15;;
78844;SDS011;68195;50.854;2.860;2023-09-07T00:40:02;11.95;;;9.93;;
78844;SDS011;68195;50.854;2.860;2023-09-07T00:42:35;10.70;;;9.65;;
78844;SDS011;68195;50.854;2.860;2023-09-07T00:45:01;13.50;;;9.88;;
78844;SDS011;68195;50.854;2.860;2023-09-07T00:47:29;11.23;;;10.10;;
78844;SDS011;68195;50.854;2.860;2023-09-07T00:49:58;11.73;;;10.10;;
78844;SDS011;68195;50.854;2.860;2023-09-07T00:52:24;10.77;;;9.32;;
78844;SDS011;68195;50.854;2.860;2023-09-07T00:54:50;10.95;;;8.88;;
78844;SDS011;68195;50.854;2.860;2023-09-07T00:57:15;9.77;;;8.63;;
78844;SDS011;68195;50.854;2.860;2023-09-07T00:59:45;12.35;;;9.05;;
78844;SDS011;68195;50.854;2.860;2023-09-07T01:02:13;13.95;;;9.43;;
78844;SDS011;68195;50.854;2.860;2023-09-07T01:04:41;10.48;;;9.38;;
78844;SDS011;68195;50.854;2.860;2023-09-07T01:07:24;12.77;;;10.05;;
78844;SDS011;68195;50.854;2.860;2023-09-07T01:09:56;14.27;;;10.57;;
78844;SDS011;68195;50.854;2.860;2023-09-07T01:12:24;12.43;;;9.98;;
78844;SDS011;68195;50.854;2.860;2023-09-07T01:14:49;13.32;;;9.75;;
78844;SDS011;68195;50.854;2.860;2023-09-07T01:17:18;12.30;;;10.13;;
78844;SDS011;68195;50.854;2.860;2023-09-07T01:19:46;11.60;;;10.05;;
78844;SDS011;68195;50.854;2.860;2023-09-07T01:22:15;12.55;;;9.70;;
78844;SDS011;68195;50.854;2.860;2023-09-07T01:24:42;11.05;;;9.85;;
78844;SDS011;68195;50.854;2.860;2023-09-07T01:27:10;11.52;;;9.25;;
78844;SDS011;68195;50.854;2.860;2023-09-07T01:29:38;9.40;;;8.40;;
78844;SDS011;68195;50.854;2.860;2023-09-07T01:32:04;9.45;;;8.40;;
78844;SDS011;68195;50.854;2.860;2023-09-07T01:34:29;7.97;;;7.18;;
78844;SDS011;68195;50.854;2.860;2023-09-07T01:36:55;10.77;;;7.38;;
78844;SDS011;68195;50.854;2.860;2023-09-07T01:39:21;9.95;;;7.53;;
78844;SDS011;68195;50.854;2.860;2023-09-07T01:41:50;7.93;;;6.82;;
78844;SDS011;68195;50.854;2.860;2023-09-07T01:44:15;10.13;;;7.72;;
78844;SDS011;68195;50.854;2.860;2023-09-07T01:46:41;9.98;;;8.57;;
78844;SDS011;68195;50.854;2.860;2023-09-07T01:49:06;10.38;;;8.63;;
78844;SDS011;68195;50.854;2.860;2023-09-07T01:51:34;9.73;;;8.77;;
78844;SDS011;68195;50.854;2.860;2023-09-07T01:54:00;10.27;;;8.95;;
78844;SDS011;68195;50.854;2.860;2023-09-07T01:56:28;12.25;;;8.98;;
78844;SDS011;68195;50.854;2.860;2023-09-07T01:58:53;12.20;;;10.25;;
78844;SDS011;68195;50.854;2.860;2023-09-07T02:01:24;10.80;;;9.70;;
78844;SDS011;68195;50.854;2.860;2023-09-07T02:03:51;14.13;;;11.05;;
78844;SDS011;68195;50.854;2.860;2023-09-07T02:06:16;12.73;;;10.95;;
78844;SDS011;68195;50.854;2.860;2023-09-07T02:08:42;16.42;;;12.30;;
78844;SDS011;68195;50.854;2.860;2023-09-07T02:11:07;12.50;;;11.20;;
78844;SDS011;68195;50.854;2.860;2023-09-07T02:13:33;12.35;;;10.82;;
78844;SDS011;68195;50.854;2.860;2023-09-07T02:15:58;12.80;;;10.90;;
78844;SDS011;68195;50.854;2.860;2023-09-07T02:21:04;13.85;;;10.82;;
78844;SDS011;68195;50.854;2.860;2023-09-07T02:23:31;13.52;;;11.27;;
78844;SDS011;68195;50.854;2.860;2023-09-07T02:25:57;13.75;;;12.10;;
78844;SDS011;68195;50.854;2.860;2023-09-07T02:28:27;12.65;;;10.93;;
78844;SDS011;68195;50.854;2.860;2023-09-07T02:30:53;12.38;;;10.93;;
78844;SDS011;68195;50.854;2.860;2023-09-07T02:33:20;14.60;;;10.18;;
78844;SDS011;68195;50.854;2.860;2023-09-07T02:35:48;11.98;;;10.75;;
78844;SDS011;68195;50.854;2.860;2023-09-07T02:38:14;11.73;;;9.38;;
78844;SDS011;68195;50.854;2.860;2023-09-07T02:40:42;12.23;;;9.15;;
78844;SDS011;68195;50.854;2.860;2023-09-07T02:43:09;9.35;;;8.45;;
78844;SDS011;68195;50.854;2.860;2023-09-07T02:45:37;12.18;;;9.13;;
78844;SDS011;68195;50.854;2.860;2023-09-07T02:48:05;11.20;;;8.77;;
78844;SDS011;68195;50.854;2.860;2023-09-07T02:50:34;11.35;;;8.82;;
78844;SDS011;68195;50.854;2.860;2023-09-07T02:53:00;10.70;;;8.95;;
78844;SDS011;68195;50.854;2.860;2023-09-07T02:55:29;9.82;;;8.40;;
78844;SDS011;68195;50.854;2.860;2023-09-07T02:57:56;9.73;;;7.95;;
78844;SDS011;68195;50.854;2.860;2023-09-07T03:00:24;8.80;;;7.82;;
78844;SDS011;68195;50.854;2.860;2023-09-07T03:02:52;9.45;;;8.40;;
78844;SDS011;68195;50.854;2.860;2023-09-07T03:05:17;10.13;;;8.85;;
78844;SDS011;68195;50.854;2.860;2023-09-07T03:07:44;9.43;;;8.20;;
78844;SDS011;68195;50.854;2.860;2023-09-07T03:10:13;10.38;;;8.80;;
78844;SDS011;68195;50.854;2.860;2023-09-07T03:12:41;9.50;;;8.38;;
78844;SDS011;68195;50.854;2.860;2023-09-07T03:15:09;10.02;;;8.98;;
78844;SDS011;68195;50.854;2.860;2023-09-07T03:17:34;9.88;;;8.88;;
78844;SDS011;68195;50.854;2.860;2023-09-07T03:20:00;11.23;;;9.55;;
78844;SDS011;68195;50.854;2.860;2023-09-07T03:22:26;11.98;;;9.10;;
78844;SDS011;68195;50.854;2.860;2023-09-07T03:24:53;11.60;;;9.48;;
78844;SDS011;68195;50.854;2.860;2023-09-07T03:27:21;13.20;;;10.13;;
78844;SDS011;68195;50.854;2.860;2023-09-07T03:29:54;12.90;;;10.57;;
78844;SDS011;68195;50.854;2.860;2023-09-07T03:32:19;13.48;;;11.02;;
78844;SDS011;68195;50.854;2.860;2023-09-07T03:34:52;14.40;;;11.40;;
78844;SDS011;68195;50.854;2.860;2023-09-07T03:37:17;12.88;;;10.73;;
78844;SDS011;68195;50.854;2.860;2023-09-07T03:39:45;13.35;;;10.70;;
78844;SDS011;68195;50.854;2.860;2023-09-07T03:42:10;12.70;;;10.05;;
78844;SDS011;68195;50.854;2.860;2023-09-07T03:44:38;13.82;;;11.65;;
78844;SDS011;68195;50.854;2.860;2023-09-07T03:47:04;14.07;;;11.07;;
78844;SDS011;68195;50.854;2.860;2023-09-07T03:49:32;13.15;;;10.85;;
78844;SDS011;68195;50.854;2.860;2023-09-07T03:52:00;14.60;;;11.77;;
78844;SDS011;68195;50.854;2.860;2023-09-07T03:54:26;12.85;;;10.43;;
78844;SDS011;68195;50.854;2.860;2023-09-07T03:56:54;16.05;;;12.50;;
78844;SDS011;68195;50.854;2.860;2023-09-07T03:59:21;15.05;;;11.95;;
78844;SDS011;68195;50.854;2.860;2023-09-07T04:01:47;14.30;;;11.75;;
78844;SDS011;68195;50.854;2.860;2023-09-07T04:04:18;16.08;;;12.48;;
78844;SDS011;68195;50.854;2.860;2023-09-07T04:06:46;15.18;;;12.02;;
78844;SDS011;68195;50.854;2.860;2023-09-07T04:09:19;16.55;;;13.02;;
78844;SDS011;68195;50.854;2.860;2023-09-07T04:11:47;16.50;;;12.35;;
78844;SDS011;68195;50.854;2.860;2023-09-07T04:14:15;14.55;;;11.98;;
78844;SDS011;68195;50.854;2.860;2023-09-07T04:16:43;15.98;;;12.65;;
78844;SDS011;68195;50.854;2.860;2023-09-07T04:19:08;17.38;;;12.43;;
78844;SDS011;68195;50.854;2.860;2023-09-07T04:21:35;14.38;;;12.52;;
78844;SDS011;68195;50.854;2.860;2023-09-07T04:24:04;15.20;;;13.00;;
78844;SDS011;68195;50.854;2.860;2023-09-07T04:26:32;14.13;;;11.43;;
78844;SDS011;68195;50.854;2.860;2023-09-07T04:29:01;13.82;;;12.38;;
78844;SDS011;68195;50.854;2.860;2023-09-07T04:31:29;14.93;;;12.10;;
78844;SDS011;68195;50.854;2.860;2023-09-07T04:33:55;15.60;;;12.13;;
78844;SDS011;68195;50.854;2.860;2023-09-07T04:36:22;13.50;;;10.85;;
78844;SDS011;68195;50.854;2.860;2023-09-07T04:38:48;15.05;;;11.93;;
78844;SDS011;68195;50.854;2.860;2023-09-07T04:41:13;18.70;;;11.32;;
78844;SDS011;68195;50.854;2.860;2023-09-07T04:43:40;14.75;;;11.23;;
78844;SDS011;68195;50.854;2.860;2023-09-07T04:46:10;13.32;;;10.52;;
78844;SDS011;68195;50.854;2.860;2023-09-07T04:48:38;14.73;;;12.50;;
78844;SDS011;68195;50.854;2.860;2023-09-07T04:51:06;14.63;;;11.20;;
78844;SDS011;68195;50.854;2.860;2023-09-07T04:53:33;11.85;;;10.63;;
78844;SDS011;68195;50.854;2.860;2023-09-07T04:56:00;12.48;;;11.18;;
78844;SDS011;68195;50.854;2.860;2023-09-07T04:58:28;13.27;;;10.88;;
78844;SDS011;68195;50.854;2.860;2023-09-07T05:00:54;11.80;;;9.93;;
78844;SDS011;68195;50.854;2.860;2023-09-07T05:03:19;13.60;;;9.52;;
78844;SDS011;68195;50.854;2.860;2023-09-07T05:05:45;10.60;;;9.07;;
78844;SDS011;68195;50.854;2.860;2023-09-07T05:08:16;11.48;;;10.13;;
78844;SDS011;68195;50.854;2.860;2023-09-07T05:10:41;11.90;;;9.50;;
78844;SDS011;68195;50.854;2.860;2023-09-07T05:13:07;12.00;;;9.65;;
78844;SDS011;68195;50.854;2.860;2023-09-07T05:15:32;12.63;;;10.27;;
78844;SDS011;68195;50.854;2.860;2023-09-07T05:17:58;11.30;;;9.20;;
78844;SDS011;68195;50.854;2.860;2023-09-07T05:20:26;13.77;;;10.70;;
78844;SDS011;68195;50.854;2.860;2023-09-07T05:22:57;14.25;;;10.55;;
78844;SDS011;68195;50.854;2.860;2023-09-07T05:25:26;12.85;;;10.68;;
78844;SDS011;68195;50.854;2.860;2023-09-07T05:27:54;12.25;;;10.63;;
78844;SDS011;68195;50.854;2.860;2023-09-07T05:30:19;13.38;;;10.30;;
78844;SDS011;68195;50.854;2.860;2023-09-07T05:32:47;11.85;;;10.52;;
78844;SDS011;68195;50.854;2.860;2023-09-07T05:35:14;18.23;;;10.93;;
78844;SDS011;68195;50.854;2.860;2023-09-07T05:37:41;13.98;;;11.35;;
78844;SDS011;68195;50.854;2.860;2023-09-07T05:40:07;15.52;;;10.15;;
78844;SDS011;68195;50.854;2.860;2023-09-07T05:42:33;15.23;;;11.95;;
78844;SDS011;68195;50.854;2.860;2023-09-07T05:45:01;14.88;;;11.02;;
78844;SDS011;68195;50.854;2.860;2023-09-07T05:47:26;17.95;;;12.60;;
78844;SDS011;68195;50.854;2.860;2023-09-07T05:49:54;15.93;;;11.50;;
78844;SDS011;68195;50.854;2.860;2023-09-07T05:52:19;17.77;;;12.90;;
78844;SDS011;68195;50.854;2.860;2023-09-07T05:54:44;15.68;;;11.48;;
78844;SDS011;68195;50.854;2.860;2023-09-07T05:57:13;16.80;;;10.82;;
78844;SDS011;68195;50.854;2.860;2023-09-07T05:59:38;16.52;;;13.02;;
78844;SDS011;68195;50.854;2.860;2023-09-07T06:02:03;18.02;;;12.65;;
78844;SDS011;68195;50.854;2.860;2023-09-07T06:04:31;16.85;;;12.30;;
78844;SDS011;68195;50.854;2.860;2023-09-07T06:06:57;14.45;;;10.48;;
78844;SDS011;68195;50.854;2.860;2023-09-07T06:09:25;15.73;;;12.35;;
78844;SDS011;68195;50.854;2.860;2023-09-07T06:11:50;17.20;;;10.23;;
78844;SDS011;68195;50.854;2.860;2023-09-07T06:14:16;14.60;;;11.88;;
78844;SDS011;68195;50.854;2.860;2023-09-07T06:16:41;16.70;;;11.18;;
78844;SDS011;68195;50.854;2.860;2023-09-07T06:19:09;15.63;;;10.90;;
78844;SDS011;68195;50.854;2.860;2023-09-07T06:21:36;16.42;;;11.77;;
78844;SDS011;68195;50.854;2.860;2023-09-07T06:24:02;21.20;;;11.85;;
78844;SDS011;68195;50.854;2.860;2023-09-07T06:26:31;18.30;;;11.25;;
78844;SDS011;68195;50.854;2.860;2023-09-07T06:28:57;19.67;;;9.65;;
78844;SDS011;68195;50.854;2.860;2023-09-07T06:31:22;17.48;;;10.73;;
78844;SDS011;68195;50.854;2.860;2023-09-07T06:33:52;14.95;;;9.82;;
78844;SDS011;68195;50.854;2.860;2023-09-07T06:36:22;24.70;;;11.02;;
78844;SDS011;68195;50.854;2.860;2023-09-07T06:38:48;15.10;;;11.63;;
78844;SDS011;68195;50.854;2.860;2023-09-07T06:41:16;14.35;;;9.32;;
78844;SDS011;68195;50.854;2.860;2023-09-07T06:43:41;13.68;;;9.30;;
78844;SDS011;68195;50.854;2.860;2023-09-07T06:46:07;13.85;;;9.75;;
78844;SDS011;68195;50.854;2.860;2023-09-07T06:48:34;14.80;;;9.43;;
78844;SDS011;68195;50.854;2.860;2023-09-07T06:51:03;20.73;;;10.30;;
78844;SDS011;68195;50.854;2.860;2023-09-07T06:53:31;13.07;;;9.23;;
78844;SDS011;68195;50.854;2.860;2023-09-07T06:56:00;15.63;;;9.57;;
78844;SDS011;68195;50.854;2.860;2023-09-07T06:58:27;14.85;;;8.93;;
78844;SDS011;68195;50.854;2.860;2023-09-07T07:00:57;16.50;;;9.63;;
78844;SDS011;68195;50.854;2.860;2023-09-07T07:03:29;17.67;;;8.70;;
78844;SDS011;68195;50.854;2.860;2023-09-07T07:05:55;15.82;;;9.50;;
78844;SDS011;68195;50.854;2.860;2023-09-07T07:08:26;14.98;;;8.32;;
78844;SDS011;68195;50.854;2.860;2023-09-07T07:10:51;13.18;;;8.65;;
78844;SDS011;68195;50.854;2.860;2023-09-07T07:13:20;20.60;;;8.82;;
78844;SDS011;68195;50.854;2.860;2023-09-07T07:15:45;16.92;;;7.78;;
78844;SDS011;68195;50.854;2.860;2023-09-07T07:18:10;14.85;;;8.43;;
78844;SDS011;68195;50.854;2.860;2023-09-07T07:20:39;16.52;;;8.18;;
78844;SDS011;68195;50.854;2.860;2023-09-07T07:23:05;12.35;;;8.48;;
78844;SDS011;68195;50.854;2.860;2023-09-07T07:25:34;13.25;;;8.27;;
78844;SDS011;68195;50.854;2.860;2023-09-07T07:28:00;13.50;;;7.50;;
78844;SDS011;68195;50.854;2.860;2023-09-07T07:30:31;12.45;;;8.20;;
78844;SDS011;68195;50.854;2.860;2023-09-07T07:32:59;15.82;;;7.88;;
78844;SDS011;68195;50.854;2.860;2023-09-07T07:35:25;11.00;;;7.40;;
78844;SDS011;68195;50.854;2.860;2023-09-07T07:37:50;11.27;;;6.97;;
78844;SDS011;68195;50.854;2.860;2023-09-07T07:40:16;10.80;;;7.50;;
78844;SDS011;68195;50.854;2.860;2023-09-07T07:42:43;10.15;;;7.30;;
78844;SDS011;68195;50.854;2.860;2023-09-07T07:45:08;13.23;;;7.47;;
78844;SDS011;68195;50.854;2.860;2023-09-07T07:47:34;10.52;;;8.00;;
78844;SDS011;68195;50.854;2.860;2023-09-07T07:50:05;12.82;;;6.80;;
78844;SDS011;68195;50.854;2.860;2023-09-07T07:52:33;13.95;;;7.60;;
78844;SDS011;68195;50.854;2.860;2023-09-07T07:54:59;9.73;;;6.75;;
78844;SDS011;68195;50.854;2.860;2023-09-07T07:57:27;12.55;;;7.32;;
78844;SDS011;68195;50.854;2.860;2023-09-07T07:59:53;11.38;;;6.90;;
78844;SDS011;68195;50.854;2.860;2023-09-07T08:02:23;10.25;;;6.68;;
78844;SDS011;68195;50.854;2.860;2023-09-07T08:04:48;8.63;;;6.72;;
78844;SDS011;68195;50.854;2.860;2023-09-07T08:07:16;10.40;;;6.55;;
78844;SDS011;68195;50.854;2.860;2023-09-07T08:09:44;7.88;;;6.93;;
78844;SDS011;68195;50.854;2.860;2023-09-07T08:12:10;8.43;;;6.28;;
78844;SDS011;68195;50.854;2.860;2023-09-07T08:14:37;8.75;;;6.03;;
78844;SDS011;68195;50.854;2.860;2023-09-07T08:17:05;7.85;;;5.78;;
78844;SDS011;68195;50.854;2.860;2023-09-07T08:19:35;9.38;;;6.00;;
78844;SDS011;68195;50.854;2.860;2023-09-07T08:22:03;9.50;;;5.72;;
78844;SDS011;68195;50.854;2.860;2023-09-07T08:24:29;8.48;;;5.45;;
78844;SDS011;68195;50.854;2.860;2023-09-07T08:26:57;9.07;;;6.70;;
78844;SDS011;68195;50.854;2.860;2023-09-07T08:29:25;10.32;;;6.82;;
78844;SDS011;68195;50.854;2.860;2023-09-07T08:31:57;8.65;;;6.25;;
78844;SDS011;68195;50.854;2.860;2023-09-07T08:34:29;7.75;;;5.60;;
78844;SDS011;68195;50.854;2.860;2023-09-07T08:36:55;8.90;;;5.88;;
78844;SDS011;68195;50.854;2.860;2023-09-07T08:39:24;9.40;;;5.95;;
78844;SDS011;68195;50.854;2.860;2023-09-07T08:41:51;8.90;;;5.93;;
78844;SDS011;68195;50.854;2.860;2023-09-07T08:44:17;10.57;;;5.18;;
78844;SDS011;68195;50.854;2.860;2023-09-07T08:46:44;8.15;;;5.05;;
78844;SDS011;68195;50.854;2.860;2023-09-07T08:49:10;7.78;;;5.53;;
78844;SDS011;68195;50.854;2.860;2023-09-07T08:51:36;7.45;;;6.18;;
78844;SDS011;68195;50.854;2.860;2023-09-07T08:54:02;9.80;;;6.50;;
78844;SDS011;68195;50.854;2.860;2023-09-07T08:56:31;6.63;;;5.45;;
78844;SDS011;68195;50.854;2.860;2023-09-07T08:58:56;9.68;;;5.68;;
78844;SDS011;68195;50.854;2.860;2023-09-07T09:01:22;8.93;;;6.10;;
78844;SDS011;68195;50.854;2.860;2023-09-07T09:03:48;8.80;;;5.38;;
78844;SDS011;68195;50.854;2.860;2023-09-07T09:06:14;10.95;;;6.60;;
78844;SDS011;68195;50.854;2.860;2023-09-07T09:08:48;12.88;;;6.93;;
78844;SDS011;68195;50.854;2.860;2023-09-07T09:11:15;11.45;;;6.68;;
78844;SDS011;68195;50.854;2.860;2023-09-07T09:16:14;13.25;;;5.90;;
78844;SDS011;68195;50.854;2.860;2023-09-07T09:18:51;10.68;;;5.60;;
78844;SDS011;68195;50.854;2.860;2023-09-07T09:21:18;12.63;;;7.65;;
78844;SDS011;68195;50.854;2.860;2023-09-07T09:23:49;9.27;;;7.68;;
78844;SDS011;68195;50.854;2.860;2023-09-07T09:26:15;8.95;;;5.72;;
78844;SDS011;68195;50.854;2.860;2023-09-07T09:28:42;10.05;;;7.03;;
78844;SDS011;68195;50.854;2.860;2023-09-07T09:31:10;8.32;;;5.50;;
78844;SDS011;68195;50.854;2.860;2023-09-07T09:33:37;8.35;;;6.00;;
78844;SDS011;68195;50.854;2.860;2023-09-07T09:36:04;18.85;;;6.90;;
78844;SDS011;68195;50.854;2.860;2023-09-07T09:38:30;11.32;;;5.93;;
78844;SDS011;68195;50.854;2.860;2023-09-07T09:40:57;12.05;;;6.78;;
78844;SDS011;68195;50.854;2.860;2023-09-07T09:43:25;9.77;;;7.50;;
78844;SDS011;68195;50.854;2.860;2023-09-07T09:45:54;8.95;;;6.25;;
78844;SDS011;68195;50.854;2.860;2023-09-07T09:48:20;11.15;;;7.68;;
78844;SDS011;68195;50.854;2.860;2023-09-07T09:50:51;12.95;;;7.50;;
78844;SDS011;68195;50.854;2.860;2023-09-07T09:53:17;9.65;;;6.32;;
78844;SDS011;68195;50.854;2.860;2023-09-07T09:55:48;9.48;;;5.88;;
78844;SDS011;68195;50.854;2.860;2023-09-07T09:58:19;10.63;;;4.97;;
78844;SDS011;68195;50.854;2.860;2023-09-07T10:00:53;9.48;;;6.30;;
78844;SDS011;68195;50.854;2.860;2023-09-07T10:03:34;12.88;;;6.60;;
78844;SDS011;68195;50.854;2.860;2023-09-07T10:06:10;7.75;;;5.50;;
78844;SDS011;68195;50.854;2.860;2023-09-07T10:11:26;9.55;;;5.78;;
78844;SDS011;68195;50.854;2.860;2023-09-07T10:14:02;8.27;;;6.10;;
78844;SDS011;68195;50.854;2.860;2023-09-07T10:16:41;7.43;;;4.90;;
78844;SDS011;68195;50.854;2.860;2023-09-07T10:19:25;5.60;;;4.45;;
78844;SDS011;68195;50.854;2.860;2023-09-07T10:21:53;6.93;;;4.65;;
78844;SDS011;68195;50.854;2.860;2023-09-07T10:24:25;6.60;;;4.53;;
78844;SDS011;68195;50.854;2.860;2023-09-07T10:27:04;9.52;;;4.65;;
78844;SDS011;68195;50.854;2.860;2023-09-07T10:29:43;6.80;;;4.53;;
78844;SDS011;68195;50.854;2.860;2023-09-07T10:32:15;5.55;;;4.07;;
78844;SDS011;68195;50.854;2.860;2023-09-07T10:34:42;5.28;;;3.90;;
78844;SDS011;68195;50.854;2.860;2023-09-07T10:37:12;10.60;;;4.78;;
78844;SDS011;68195;50.854;2.860;2023-09-07T10:39:38;5.93;;;4.00;;
78844;SDS011;68195;50.854;2.860;2023-09-07T10:42:05;6.28;;;4.38;;
78844;SDS011;68195;50.854;2.860;2023-09-07T10:44:33;6.72;;;3.90;;
78844;SDS011;68195;50.854;2.860;2023-09-07T10:46:58;6.50;;;4.05;;
78844;SDS011;68195;50.854;2.860;2023-09-07T10:49:28;6.35;;;4.50;;
78844;SDS011;68195;50.854;2.860;2023-09-07T10:51:58;6.78;;;4.20;;
78844;SDS011;68195;50.854;2.860;2023-09-07T10:54:24;5.32;;;3.72;;
78844;SDS011;68195;50.854;2.860;2023-09-07T10:56:51;6.95;;;4.30;;
78844;SDS011;68195;50.854;2.860;2023-09-07T10:59:22;4.40;;;3.75;;
78844;SDS011;68195;50.854;2.860;2023-09-07T11:01:48;9.00;;;4.47;;
78844;SDS011;68195;50.854;2.860;2023-09-07T11:04:13;6.75;;;4.50;;
78844;SDS011;68195;50.854;2.860;2023-09-07T11:09:10;7.35;;;4.85;;
78844;SDS011;68195;50.854;2.860;2023-09-07T11:11:39;6.90;;;5.55;;
78844;SDS011;68195;50.854;2.860;2023-09-07T11:14:08;6.97;;;4.38;;
78844;SDS011;68195;50.854;2.860;2023-09-07T11:16:36;9.95;;;4.63;;
78844;SDS011;68195;50.854;2.860;2023-09-07T11:19:06;6.22;;;4.85;;
78844;SDS011;68195;50.854;2.860;2023-09-07T11:21:36;7.95;;;4.25;;
78844;SDS011;68195;50.854;2.860;2023-09-07T11:24:04;7.15;;;5.32;;
78844;SDS011;68195;50.854;2.860;2023-09-07T11:26:39;7.57;;;4.88;;
78844;SDS011;68195;50.854;2.860;2023-09-07T11:29:08;8.30;;;4.25;;
78844;SDS011;68195;50.854;2.860;2023-09-07T11:31:38;8.00;;;4.40;;
78844;SDS011;68195;50.854;2.860;2023-09-07T11:34:08;5.47;;;3.83;;
78844;SDS011;68195;50.854;2.860;2023-09-07T11:39:00;7.37;;;4.47;;
78844;SDS011;68195;50.854;2.860;2023-09-07T11:41:25;7.47;;;4.40;;
78844;SDS011;68195;50.854;2.860;2023-09-07T11:43:51;8.23;;;4.68;;
78844;SDS011;68195;50.854;2.860;2023-09-07T11:46:17;8.02;;;4.68;;
78844;SDS011;68195;50.854;2.860;2023-09-07T11:48:42;7.53;;;4.55;;
78844;SDS011;68195;50.854;2.860;2023-09-07T11:51:08;9.52;;;5.53;;
78844;SDS011;68195;50.854;2.860;2023-09-07T11:53:34;4.65;;;3.97;;
78844;SDS011;68195;50.854;2.860;2023-09-07T11:55:59;6.72;;;4.93;;
78844;SDS011;68195;50.854;2.860;2023-09-07T11:58:27;7.05;;;4.32;;
78844;SDS011;68195;50.854;2.860;2023-09-07T12:00:53;6.10;;;4.82;;
78844;SDS011;68195;50.854;2.860;2023-09-07T12:03:21;6.18;;;4.15;;
78844;SDS011;68195;50.854;2.860;2023-09-07T12:05:46;5.43;;;4.53;;
78844;SDS011;68195;50.854;2.860;2023-09-07T12:08:12;6.05;;;4.25;;
78844;SDS011;68195;50.854;2.860;2023-09-07T12:10:38;6.80;;;4.90;;
78844;SDS011;68195;50.854;2.860;2023-09-07T12:13:03;9.05;;;5.00;;
78844;SDS011;68195;50.854;2.860;2023-09-07T12:15:33;4.65;;;4.03;;
78844;SDS011;68195;50.854;2.860;2023-09-07T12:18:00;6.65;;;4.53;;
78844;SDS011;68195;50.854;2.860;2023-09-07T12:20:28;5.75;;;4.88;;
78844;SDS011;68195;50.854;2.860;2023-09-07T12:22:54;11.57;;;5.10;;
78844;SDS011;68195;50.854;2.860;2023-09-07T12:25:21;5.57;;;4.35;;
78844;SDS011;68195;50.854;2.860;2023-09-07T12:27:47;4.90;;;4.00;;
78844;SDS011;68195;50.854;2.860;2023-09-07T12:30:12;6.97;;;4.35;;
78844;SDS011;68195;50.854;2.860;2023-09-07T12:32:41;6.60;;;4.53;;
78844;SDS011;68195;50.854;2.860;2023-09-07T12:35:06;6.75;;;4.90;;
78844;SDS011;68195;50.854;2.860;2023-09-07T12:37:33;8.00;;;4.55;;
78844;SDS011;68195;50.854;2.860;2023-09-07T12:40:00;4.97;;;4.00;;
78844;SDS011;68195;50.854;2.860;2023-09-07T12:42:26;7.88;;;4.35;;
78844;SDS011;68195;50.854;2.860;2023-09-07T12:44:51;6.85;;;4.22;;
78844;SDS011;68195;50.854;2.860;2023-09-07T12:47:17;5.40;;;4.00;;
78844;SDS011;68195;50.854;2.860;2023-09-07T12:49:42;5.88;;;4.10;;
78844;SDS011;68195;50.854;2.860;2023-09-07T12:52:08;6.47;;;4.28;;
78844;SDS011;68195;50.854;2.860;2023-09-07T12:54:35;6.70;;;4.50;;
78844;SDS011;68195;50.854;2.860;2023-09-07T12:57:01;5.60;;;4.05;;
78844;SDS011;68195;50.854;2.860;2023-09-07T12:59:28;5.88;;;4.07;;
78844;SDS011;68195;50.854;2.860;2023-09-07T13:01:56;7.95;;;4.18;;
78844;SDS011;68195;50.854;2.860;2023-09-07T13:04:24;6.35;;;4.25;;
78844;SDS011;68195;50.854;2.860;2023-09-07T13:06:49;7.65;;;5.00;;
78844;SDS011;68195;50.854;2.860;2023-09-07T13:09:14;10.35;;;4.93;;
78844;SDS011;68195;50.854;2.860;2023-09-07T13:11:40;6.53;;;3.83;;
78844;SDS011;68195;50.854;2.860;2023-09-07T13:14:07;5.72;;;4.22;;
78844;SDS011;68195;50.854;2.860;2023-09-07T13:16:35;6.57;;;4.90;;
78844;SDS011;68195;50.854;2.860;2023-09-07T13:19:03;7.85;;;4.38;;
78844;SDS011;68195;50.854;2.860;2023-09-07T13:21:29;6.07;;;4.20;;
78844;SDS011;68195;50.854;2.860;2023-09-07T13:23:56;6.90;;;4.50;;
78844;SDS011;68195;50.854;2.860;2023-09-07T13:26:22;6.03;;;4.32;;
78844;SDS011;68195;50.854;2.860;2023-09-07T13:28:47;6.63;;;4.18;;
78844;SDS011;68195;50.854;2.860;2023-09-07T13:31:12;11.20;;;4.90;;
78844;SDS011;68195;50.854;2.860;2023-09-07T13:33:40;7.95;;;4.70;;
78844;SDS011;68195;50.854;2.860;2023-09-07T13:36:07;7.80;;;4.25;;
78844;SDS011;68195;50.854;2.860;2023-09-07T13:38:34;5.45;;;4.50;;
78844;SDS011;68195;50.854;2.860;2023-09-07T13:41:02;6.18;;;4.30;;
78844;SDS011;68195;50.854;2.860;2023-09-07T13:43:30;7.25;;;4.53;;
78844;SDS011;68195;50.854;2.860;2023-09-07T13:45:58;8.93;;;5.13;;
78844;SDS011;68195;50.854;2.860;2023-09-07T13:48:23;6.15;;;4.80;;
78844;SDS011;68195;50.854;2.860;2023-09-07T13:50:51;6.45;;;4.88;;
78844;SDS011;68195;50.854;2.860;2023-09-07T13:53:19;8.20;;;4.65;;
78844;SDS011;68195;50.854;2.860;2023-09-07T13:55:46;5.60;;;4.85;;
78844;SDS011;68195;50.854;2.860;2023-09-07T13:58:12;6.50;;;4.85;;
78844;SDS011;68195;50.854;2.860;2023-09-07T14:00:39;7.18;;;4.30;;
78844;SDS011;68195;50.854;2.860;2023-09-07T14:03:05;8.32;;;4.82;;
78844;SDS011;68195;50.854;2.860;2023-09-07T14:05:35;5.28;;;4.35;;
78844;SDS011;68195;50.854;2.860;2023-09-07T14:08:03;5.65;;;4.68;;
78844;SDS011;68195;50.854;2.860;2023-09-07T14:10:31;7.05;;;4.65;;
78844;SDS011;68195;50.854;2.860;2023-09-07T14:12:59;5.30;;;4.15;;
78844;SDS011;68195;50.854;2.860;2023-09-07T14:15:29;7.45;;;4.95;;
78844;SDS011;68195;50.854;2.860;2023-09-07T14:17:54;9.95;;;5.20;;
78844;SDS011;68195;50.854;2.860;2023-09-07T14:20:20;7.85;;;5.32;;
78844;SDS011;68195;50.854;2.860;2023-09-07T14:22:47;7.57;;;4.85;;
78844;SDS011;68195;50.854;2.860;2023-09-07T14:25:16;7.72;;;5.38;;
78844;SDS011;68195;50.854;2.860;2023-09-07T14:27:44;6.93;;;5.03;;
78844;SDS011;68195;50.854;2.860;2023-09-07T14:30:09;5.35;;;4.40;;
78844;SDS011;68195;50.854;2.860;2023-09-07T14:32:35;8.50;;;5.20;;
78844;SDS011;68195;50.854;2.860;2023-09-07T14:35:05;9.52;;;5.03;;
78844;SDS011;68195;50.854;2.860;2023-09-07T14:39:59;8.13;;;5.03;;
78844;SDS011;68195;50.854;2.860;2023-09-07T14:42:24;6.93;;;5.10;;
78844;SDS011;68195;50.854;2.860;2023-09-07T14:44:50;7.85;;;5.07;;
78844;SDS011;68195;50.854;2.860;2023-09-07T14:47:18;7.25;;;4.80;;
78844;SDS011;68195;50.854;2.860;2023-09-07T14:49:50;7.43;;;4.75;;
78844;SDS011;68195;50.854;2.860;2023-09-07T14:52:19;8.32;;;5.45;;